Time;durP1;ratioP1;P1;durP2;ratioP2;P2;SDS_P1;SDS_P2;PMS_P1;PMS_P2;Temp;Humidity;BMP_temperature;BMP_pressure;BME280_temperature;BME280_humidity;BME280_pressure;Samples;Min_cycle;Max_cycle;Signal;HPM_P1;HPM_P2
2023/09/05 00:00:20;;;;;;;4.20;1.90;;;17.10;99.90;;;;;;5059609;28;20223;-88
2023/09/05 00:02:48;;;;;;;5.13;2.25;;;17.10;99.90;;;;;;5059404;28;20173;-87
2023/09/05 00:05:15;;;;;;;3.78;2.60;;;17.10;99.90;;;;;;5059189;28;20247;-87
2023/09/05 00:07:41;;;;;;;7.03;2.35;;;17.10;99.90;;;;;;5059398;28;20662;-88
2023/09/05 00:10:07;;;;;;;3.78;2.40;;;17.10;99.90;;;;;;5059896;28;20244;-90
2023/09/05 00:12:34;;;;;;;5.13;2.60;;;17.10;99.90;;;;;;5059674;28;20258;-88
2023/09/05 00:15:01;;;;;;;3.13;2.35;;;17.20;99.90;;;;;;5059273;28;20173;-87
2023/09/05 00:17:26;;;;;;;4.28;2.75;;;17.30;99.90;;;;;;5059511;28;20291;-89
2023/09/05 00:19:55;;;;;;;3.50;2.47;;;17.30;99.90;;;;;;5058751;28;20271;-87
2023/09/05 00:22:23;;;;;;;3.50;2.38;;;17.30;99.90;;;;;;5059731;28;20259;-88
2023/09/05 00:24:49;;;;;;;3.50;2.45;;;17.30;99.90;;;;;;5059191;28;20600;-88
2023/09/05 00:27:15;;;;;;;3.35;2.17;;;17.30;99.90;;;;;;5077036;28;20231;-88
2023/09/05 00:29:42;;;;;;;4.70;2.90;;;17.30;99.90;;;;;;5077213;28;20227;-87
2023/09/05 00:32:09;;;;;;;7.05;2.25;;;17.30;99.90;;;;;;5059516;28;20177;-88
2023/09/05 00:34:37;;;;;;;4.60;2.40;;;17.40;99.90;;;;;;5058172;28;20594;-89
2023/09/05 00:37:08;;;;;;;5.07;2.67;;;17.40;99.90;;;;;;5077336;28;20173;-89
2023/09/05 00:39:40;;;;;;;5.85;2.90;;;17.40;99.90;;;;;;5059405;28;20503;-89
2023/09/05 00:42:12;;;;;;;4.32;2.25;;;17.40;99.90;;;;;;5059160;28;20177;-88
2023/09/05 00:44:38;;;;;;;3.38;2.50;;;17.40;99.90;;;;;;5059404;28;20169;-88
2023/09/05 00:47:04;;;;;;;7.22;2.58;;;17.40;99.90;;;;;;5059276;28;20185;-89
2023/09/05 00:49:39;;;;;;;4.72;2.60;;;17.40;99.90;;;;;;5058824;28;20706;-89
2023/09/05 00:52:09;;;;;;;2.88;2.30;;;17.30;99.90;;;;;;5059100;28;20165;-88
2023/09/05 00:54:37;;;;;;;6.13;2.28;;;17.30;99.90;;;;;;5058558;28;20185;-90
2023/09/05 00:57:03;;;;;;;4.88;2.33;;;17.30;99.90;;;;;;5058345;28;20199;-87
2023/09/05 00:59:29;;;;;;;3.17;2.35;;;17.30;99.90;;;;;;5058476;28;20177;-89
2023/09/05 01:01:55;;;;;;;4.03;2.38;;;17.30;99.90;;;;;;5058398;28;20173;-90
2023/09/05 01:04:21;;;;;;;6.88;2.35;;;17.30;99.90;;;;;;5058442;28;20192;-88
2023/09/05 01:07:09;;;;;;;2.58;2.20;;;17.20;99.90;;;;;;5058443;28;20178;-90
2023/09/05 01:09:38;;;;;;;2.95;2.10;;;17.20;99.90;;;;;;5075838;28;20217;-88
2023/09/05 01:12:05;;;;;;;4.32;2.45;;;17.20;99.90;;;;;;5058796;28;20515;-88
2023/09/05 01:14:31;;;;;;;2.80;2.10;;;17.20;99.90;;;;;;5058674;28;20188;-88
2023/09/05 01:17:01;;;;;;;3.55;2.30;;;17.20;99.90;;;;;;5058753;28;20511;-87
2023/09/05 01:19:28;;;;;;;3.42;2.00;;;17.10;99.90;;;;;;5058208;28;20173;-89
2023/09/05 01:22:32;;;;;;;4.05;2.00;;;17.00;99.90;;;;;;5058777;28;20185;-88
2023/09/05 01:24:58;;;;;;;3.97;2.20;;;17.00;99.90;;;;;;5058432;28;20611;-88
2023/09/05 01:27:26;;;;;;;3.60;2.07;;;16.90;99.90;;;;;;5058367;28;20271;-91
2023/09/05 01:29:53;;;;;;;2.80;2.08;;;16.90;99.90;;;;;;5058379;28;20260;-88
2023/09/05 01:32:20;;;;;;;3.47;2.33;;;16.90;99.90;;;;;;5058248;28;20275;-90
2023/09/05 01:34:47;;;;;;;3.90;2.17;;;16.90;99.90;;;;;;5049009;28;20648;-88
2023/09/05 01:37:15;;;;;;;6.25;2.42;;;16.80;99.90;;;;;;5038595;28;20213;-90
2023/09/05 01:39:44;;;;;;;4.15;2.08;;;16.80;99.90;;;;;;5038516;28;20178;-91
2023/09/05 01:42:10;;;;;;;3.05;2.08;;;16.80;99.90;;;;;;5038260;28;20185;-88
2023/09/05 01:44:38;;;;;;;2.38;2.17;;;16.90;99.90;;;;;;5038387;28;20550;-88
2023/09/05 01:47:04;;;;;;;2.90;2.20;;;16.80;99.90;;;;;;5038198;28;20173;-88
2023/09/05 01:49:30;;;;;;;2.67;1.85;;;16.70;99.90;;;;;;5036893;28;20316;-87
2023/09/05 01:51:56;;;;;;;3.08;2.00;;;16.70;99.90;;;;;;5037499;28;20205;-89
2023/09/05 01:54:22;;;;;;;3.33;2.35;;;16.70;99.90;;;;;;5055652;28;20200;-87
2023/09/05 01:56:48;;;;;;;6.68;2.55;;;16.60;99.90;;;;;;5037596;28;20223;-87
2023/09/05 01:59:14;;;;;;;3.90;2.40;;;16.60;99.90;;;;;;5037416;28;20231;-88
2023/09/05 02:01:40;;;;;;;3.15;2.10;;;16.60;99.90;;;;;;5037341;28;20176;-88
2023/09/05 02:04:06;;;;;;;4.55;2.22;;;16.60;99.90;;;;;;5041287;28;20272;-86
2023/09/05 02:06:31;;;;;;;3.78;2.25;;;16.50;99.90;;;;;;5056904;28;20180;-87
2023/09/05 02:08:57;;;;;;;3.33;2.35;;;16.50;99.90;;;;;;5074944;28;20205;-88
2023/09/05 02:11:24;;;;;;;3.97;2.30;;;16.40;99.90;;;;;;5057328;28;20177;-88
2023/09/05 02:13:49;;;;;;;2.97;2.45;;;16.40;99.90;;;;;;5057517;28;20177;-88
2023/09/05 02:16:18;;;;;;;3.08;2.25;;;16.40;99.90;;;;;;5057322;28;20177;-89
2023/09/05 02:18:48;;;;;;;3.92;2.38;;;16.30;99.90;;;;;;5057353;28;20173;-88
2023/09/05 02:21:15;;;;;;;2.95;1.95;;;16.30;99.90;;;;;;5056893;28;20176;-87
2023/09/05 02:23:41;;;;;;;5.00;2.60;;;16.20;99.90;;;;;;5057051;28;20224;-88
2023/09/05 02:26:08;;;;;;;3.83;2.63;;;16.10;99.90;;;;;;5057341;28;20615;-88
2023/09/05 02:28:34;;;;;;;3.40;2.15;;;16.00;99.90;;;;;;5057171;28;20258;-89
2023/09/05 02:31:05;;;;;;;3.55;2.22;;;15.90;99.90;;;;;;5057300;28;20173;-89
2023/09/05 02:33:37;;;;;;;4.00;2.58;;;15.80;99.90;;;;;;5057045;28;20170;-88
2023/09/05 02:36:08;;;;;;;4.40;3.00;;;15.70;99.90;;;;;;5056766;28;20645;-89
2023/09/05 02:38:35;;;;;;;4.97;2.85;;;15.70;99.90;;;;;;5057077;28;20188;-89
2023/09/05 02:41:01;;;;;;;7.07;2.75;;;15.60;99.90;;;;;;5057027;28;20173;-89
2023/09/05 02:43:29;;;;;;;3.83;3.03;;;15.60;99.90;;;;;;5056839;28;21005;-89
2023/09/05 02:45:54;;;;;;;4.85;3.13;;;15.50;99.90;;;;;;5057087;28;20260;-89
2023/09/05 02:48:20;;;;;;;3.90;2.75;;;15.50;99.90;;;;;;5056740;28;20295;-89
2023/09/05 02:50:46;;;;;;;5.63;2.70;;;15.40;99.90;;;;;;5056370;28;20229;-89
2023/09/05 02:53:14;;;;;;;4.05;2.85;;;15.40;99.90;;;;;;5056681;28;20284;-90
2023/09/05 02:55:43;;;;;;;4.38;2.88;;;15.40;99.90;;;;;;5056629;28;20173;-91
2023/09/05 02:58:09;;;;;;;3.50;2.70;;;15.30;99.90;;;;;;5056758;28;20177;-91
2023/09/05 03:00:35;;;;;;;5.57;3.05;;;15.40;99.90;;;;;;5056766;28;20238;-90
2023/09/05 03:03:04;;;;;;;3.58;2.80;;;15.40;99.90;;;;;;5056707;28;20173;-89
2023/09/05 03:05:30;;;;;;;4.50;3.00;;;15.30;99.90;;;;;;5073506;28;20227;-88
2023/09/05 03:07:56;;;;;;;4.35;2.78;;;15.30;99.90;;;;;;5055803;28;20205;-88
2023/09/05 03:10:21;;;;;;;4.40;3.13;;;15.40;99.90;;;;;;5056171;28;20223;-87
2023/09/05 03:12:47;;;;;;;6.40;3.17;;;15.30;99.90;;;;;;5074748;28;20169;-88
2023/09/05 03:15:18;;;;;;;5.68;2.60;;;15.20;99.90;;;;;;5056535;28;20566;-87
2023/09/05 03:17:45;;;;;;;3.25;2.95;;;15.10;99.90;;;;;;5056445;28;20174;-88
2023/09/05 03:20:11;;;;;;;3.40;2.75;;;15.10;99.90;;;;;;5055983;28;20212;-87
2023/09/05 03:22:37;;;;;;;3.85;2.83;;;15.10;99.90;;;;;;5056149;28;20181;-88
2023/09/05 03:25:04;;;;;;;3.58;3.03;;;15.00;99.90;;;;;;5056701;28;20488;-88
2023/09/05 03:27:30;;;;;;;5.63;3.20;;;14.90;99.90;;;;;;5056312;28;20184;-88
2023/09/05 03:29:55;;;;;;;5.47;3.53;;;14.90;99.90;;;;;;5056149;28;20181;-88
2023/09/05 03:32:22;;;;;;;4.60;3.08;;;14.90;99.90;;;;;;5059163;28;20169;-88
2023/09/05 03:34:51;;;;;;;6.25;3.15;;;14.80;99.90;;;;;;5060644;28;20185;-88
2023/09/05 03:37:17;;;;;;;4.30;3.38;;;14.70;99.90;;;;;;5060511;28;20196;-88
2023/09/05 03:39:42;;;;;;;4.32;2.90;;;14.70;99.90;;;;;;5078269;28;20231;-88
2023/09/05 03:42:10;;;;;;;5.95;3.35;;;14.70;99.90;;;;;;5060227;28;20525;-88
2023/09/05 03:44:35;;;;;;;4.55;3.22;;;14.70;99.90;;;;;;5060608;28;20177;-87
2023/09/05 03:47:01;;;;;;;3.55;3.25;;;14.60;99.90;;;;;;5060273;28;20304;-87
2023/09/05 03:49:27;;;;;;;6.63;3.03;;;14.70;99.90;;;;;;5059815;28;20321;-88
2023/09/05 03:51:57;;;;;;;4.47;3.28;;;14.60;99.90;;;;;;5059950;28;20169;-88
2023/09/05 03:54:27;;;;;;;10.63;3.42;;;14.60;99.90;;;;;;5060064;28;20177;-88
2023/09/05 03:56:53;;;;;;;6.75;3.42;;;14.60;99.90;;;;;;5077777;28;20166;-86
2023/09/05 03:59:19;;;;;;;5.40;3.40;;;14.70;99.90;;;;;;5077707;28;20203;-87
2023/09/05 04:01:47;;;;;;;4.88;3.25;;;14.70;99.90;;;;;;5059764;28;20718;-88
2023/09/05 04:04:13;;;;;;;3.67;3.20;;;14.70;99.90;;;;;;5059738;28;20181;-87
2023/09/05 04:06:39;;;;;;;6.32;3.75;;;14.70;99.90;;;;;;5059281;28;20208;-87
2023/09/05 04:09:05;;;;;;;3.97;3.58;;;14.70;99.90;;;;;;5059510;28;20208;-87
2023/09/05 04:11:30;;;;;;;4.57;3.45;;;14.70;99.90;;;;;;5059659;28;20173;-87
2023/09/05 04:13:57;;;;;;;7.22;3.75;;;14.60;99.90;;;;;;5059443;28;20181;-87
2023/09/05 04:16:23;;;;;;;5.20;3.53;;;14.60;99.90;;;;;;5059332;28;20169;-88
2023/09/05 04:18:48;;;;;;;5.65;3.53;;;14.50;99.90;;;;;;5059724;28;20180;-87
2023/09/05 04:21:14;;;;;;;10.18;3.65;;;14.40;99.90;;;;;;5077000;28;20227;-87
2023/09/05 04:23:40;;;;;;;5.20;3.70;;;14.40;99.90;;;;;;5059145;28;20250;-87
2023/09/05 04:26:05;;;;;;;5.60;3.35;;;14.40;99.90;;;;;;5059340;28;20185;-87
2023/09/05 04:28:31;;;;;;;5.47;3.55;;;14.40;99.90;;;;;;5059098;28;20213;-88
2023/09/05 04:31:06;;;;;;;6.53;3.60;;;14.30;99.90;;;;;;5059397;28;20173;-88
2023/09/05 04:33:37;;;;;;;5.75;3.58;;;14.30;99.90;;;;;;5059338;28;20204;-87
2023/09/05 04:36:06;;;;;;;4.97;3.83;;;14.40;99.90;;;;;;5059020;28;20212;-88
2023/09/05 04:38:31;;;;;;;5.18;3.78;;;14.40;99.90;;;;;;5059093;28;20174;-87
2023/09/05 04:41:01;;;;;;;3.65;3.35;;;14.40;99.90;;;;;;5059099;28;20203;-88
2023/09/05 04:43:29;;;;;;;5.53;4.13;;;14.40;99.90;;;;;;5075414;28;20169;-88
2023/09/05 04:45:56;;;;;;;5.55;4.10;;;14.30;99.90;;;;;;5059106;28;20620;-87
2023/09/05 04:48:22;;;;;;;6.13;4.47;;;14.30;99.90;;;;;;5058572;28;20233;-88
2023/09/05 04:50:48;;;;;;;7.35;3.60;;;14.30;99.90;;;;;;5058504;28;20312;-87
2023/09/05 04:53:15;;;;;;;9.52;4.60;;;14.30;99.90;;;;;;5084277;28;20284;-88
2023/09/05 04:55:44;;;;;;;4.82;3.97;;;14.30;99.90;;;;;;5058789;28;20172;-88
2023/09/05 04:58:12;;;;;;;6.28;4.45;;;14.30;99.90;;;;;;5058600;28;20203;-89
2023/09/05 05:00:38;;;;;;;5.65;4.20;;;14.20;99.90;;;;;;5057869;28;20273;-88
2023/09/05 05:03:05;;;;;;;6.95;4.38;;;14.20;99.90;;;;;;5058270;28;20177;-87
2023/09/05 05:05:31;;;;;;;6.60;4.68;;;14.20;99.90;;;;;;5058599;28;20596;-89
2023/09/05 05:07:57;;;;;;;7.15;4.60;;;14.40;99.90;;;;;;5058348;28;20216;-87
2023/09/05 05:10:22;;;;;;;5.60;4.65;;;14.50;99.90;;;;;;5057940;28;20238;-88
2023/09/05 05:12:48;;;;;;;6.15;4.43;;;14.40;99.90;;;;;;5058547;28;20614;-87
2023/09/05 05:15:16;;;;;;;7.90;4.57;;;14.50;99.90;;;;;;5058086;28;20181;-86
2023/09/05 05:17:42;;;;;;;5.50;4.97;;;14.50;99.90;;;;;;5057909;28;20177;-87
2023/09/05 05:20:08;;;;;;;9.90;4.68;;;14.50;99.90;;;;;;5058049;28;20517;-87
2023/09/05 05:22:34;;;;;;;6.90;4.63;;;14.50;99.90;;;;;;5058083;28;20180;-87
2023/09/05 05:25:00;;;;;;;7.38;4.72;;;14.60;99.90;;;;;;5075997;28;20189;-87
2023/09/05 05:27:26;;;;;;;7.57;4.45;;;14.70;99.90;;;;;;5075695;28;20170;-87
2023/09/05 05:29:52;;;;;;;8.57;4.35;;;14.70;99.90;;;;;;5057780;28;20217;-87
2023/09/05 05:32:18;;;;;;;8.70;4.55;;;14.70;99.90;;;;;;5057633;28;20207;-88
2023/09/05 05:34:48;;;;;;;6.68;4.80;;;14.70;99.90;;;;;;5075748;28;20177;-87
2023/09/05 05:37:15;;;;;;;7.85;4.97;;;14.80;99.90;;;;;;5057697;28;20165;-88
2023/09/05 05:39:41;;;;;;;7.00;4.57;;;14.80;99.90;;;;;;5057697;28;20620;-87
2023/09/05 05:42:07;;;;;;;6.65;4.70;;;14.90;99.90;;;;;;5057183;28;20189;-86
2023/09/05 05:44:34;;;;;;;5.15;4.47;;;15.00;99.90;;;;;;5056932;28;20185;-87
2023/09/05 05:47:00;;;;;;;8.88;4.30;;;15.00;99.90;;;;;;5036845;28;20177;-89
2023/09/05 05:49:29;;;;;;;8.27;3.90;;;15.10;99.90;;;;;;5053621;28;20237;-88
2023/09/05 05:51:56;;;;;;;4.45;4.05;;;15.20;99.90;;;;;;5041861;28;20181;-87
2023/09/05 05:54:23;;;;;;;6.03;4.15;;;15.30;99.90;;;;;;5056933;28;20615;-89
2023/09/05 05:56:53;;;;;;;6.35;4.45;;;15.50;99.90;;;;;;5074901;28;20169;-89
2023/09/05 05:59:19;;;;;;;5.72;4.18;;;15.60;99.90;;;;;;5056269;28;20219;-94
2023/09/05 06:01:45;;;;;;;6.15;4.13;;;15.70;99.90;;;;;;5057473;28;20525;-88
2023/09/05 06:04:12;;;;;;;8.05;4.18;;;15.90;99.90;;;;;;5056935;28;20176;-88
2023/09/05 06:06:39;;;;;;;6.78;4.20;;;16.00;99.90;;;;;;5074069;28;20208;-88
2023/09/05 06:09:05;;;;;;;5.43;4.22;;;16.00;99.90;;;;;;5056987;28;20216;-88
2023/09/05 06:11:30;;;;;;;5.30;3.90;;;16.30;99.90;;;;;;5056885;28;20181;-88
2023/09/05 06:13:57;;;;;;;5.93;3.85;;;16.40;99.90;;;;;;5056604;28;20173;-88
2023/09/05 06:16:23;;;;;;;6.47;4.35;;;16.50;99.90;;;;;;5057041;28;20206;-89
2023/09/05 06:18:49;;;;;;;6.22;3.90;;;16.60;99.90;;;;;;5056962;28;20174;-88
2023/09/05 06:21:14;;;;;;;4.22;3.83;;;16.80;99.90;;;;;;5056924;28;20671;-89
2023/09/05 06:23:40;;;;;;;6.03;4.03;;;16.90;99.90;;;;;;5056688;28;20501;-88
2023/09/05 06:26:06;;;;;;;6.72;4.20;;;17.00;99.90;;;;;;5056482;28;20186;-88
2023/09/05 06:28:31;;;;;;;6.30;4.40;;;17.10;99.90;;;;;;5074130;28;20201;-88
2023/09/05 06:30:58;;;;;;;5.43;3.53;;;17.20;99.90;;;;;;5056510;28;20173;-87
2023/09/05 06:33:26;;;;;;;4.90;3.47;;;17.30;99.90;;;;;;5056192;28;20181;-87
2023/09/05 06:35:53;;;;;;;10.13;4.55;;;17.40;99.90;;;;;;5056682;28;20200;-88
2023/09/05 06:38:21;;;;;;;6.22;4.20;;;17.50;99.90;;;;;;5056414;28;20173;-88
2023/09/05 06:40:47;;;;;;;5.03;3.90;;;17.60;99.90;;;;;;5056390;28;20189;-88
2023/09/05 06:43:13;;;;;;;7.22;3.60;;;17.60;99.90;;;;;;5056162;28;20260;-88
2023/09/05 06:45:40;;;;;;;8.63;3.80;;;17.70;99.90;;;;;;5056275;28;20185;-88
2023/09/05 06:48:06;;;;;;;5.63;3.60;;;17.80;99.90;;;;;;5056097;28;20324;-87
2023/09/05 06:50:32;;;;;;;5.88;3.80;;;17.90;99.90;;;;;;5056008;28;20264;-88
2023/09/05 06:52:58;;;;;;;5.07;3.70;;;17.90;99.90;;;;;;5056118;28;20265;-88
2023/09/05 06:55:28;;;;;;;5.75;4.00;;;18.00;99.90;;;;;;5056039;28;20277;-88
2023/09/05 06:57:54;;;;;;;6.05;3.28;;;18.00;99.90;;;;;;5074181;28;20165;-88
2023/09/05 07:00:23;;;;;;;6.13;4.55;;;18.00;99.90;;;;;;5055778;28;20169;-88
2023/09/05 07:02:50;;;;;;;6.00;4.30;;;18.10;99.90;;;;;;5056292;28;20560;-88
2023/09/05 07:05:16;;;;;;;6.47;4.00;;;18.20;99.90;;;;;;5056020;28;20181;-88
2023/09/05 07:07:42;;;;;;;6.05;4.22;;;18.30;99.90;;;;;;5055618;28;20188;-88
2023/09/05 07:10:08;;;;;;;6.68;3.95;;;18.40;99.90;;;;;;5056345;28;20271;-88
2023/09/05 07:12:34;;;;;;;7.03;4.07;;;18.50;99.90;;;;;;5055992;28;20180;-88
2023/09/05 07:15:00;;;;;;;8.45;3.80;;;18.50;99.90;;;;;;5056242;28;20227;-89
2023/09/05 07:17:26;;;;;;;5.72;3.67;;;18.60;99.90;;;;;;5044087;28;20525;-88
2023/09/05 07:19:52;;;;;;;7.70;3.58;;;18.70;99.90;;;;;;5035692;28;20188;-87
2023/09/05 07:22:17;;;;;;;6.25;3.28;;;18.70;99.90;;;;;;5035746;28;20671;-88
2023/09/05 07:24:45;;;;;;;4.28;3.22;;;18.90;99.90;;;;;;5059629;28;20181;-87
2023/09/05 07:27:11;;;;;;;4.93;3.17;;;19.00;99.90;;;;;;5055948;28;20176;-87
2023/09/05 07:29:37;;;;;;;5.25;3.28;;;19.10;99.90;;;;;;5055680;28;20587;-87
2023/09/05 07:32:03;;;;;;;6.82;3.10;;;19.10;99.90;;;;;;5055823;28;20234;-87
2023/09/05 07:34:29;;;;;;;4.55;2.88;;;19.10;99.90;;;;;;5073917;28;20200;-85
2023/09/05 07:36:56;;;;;;;4.53;2.90;;;19.30;99.90;;;;;;5073825;28;20196;-86
2023/09/05 07:39:23;;;;;;;5.03;2.67;;;19.30;99.90;;;;;;5055952;28;20174;-86
2023/09/05 07:41:48;;;;;;;3.90;2.50;;;19.40;99.90;;;;;;5056048;28;20272;-86
2023/09/05 07:44:14;;;;;;;4.03;2.70;;;19.50;99.90;;;;;;5055846;28;20265;-86
2023/09/05 07:46:40;;;;;;;6.03;2.97;;;19.50;99.90;;;;;;5055678;28;20619;-85
2023/09/05 07:49:05;;;;;;;4.72;2.60;;;19.60;99.90;;;;;;5055304;28;20744;-86
2023/09/05 07:51:31;;;;;;;5.93;2.88;;;19.70;99.90;;;;;;5055563;28;20169;-86
2023/09/05 07:54:06;;;;;;;4.82;2.50;;;19.80;99.90;;;;;;5056003;28;20196;-86
2023/09/05 07:56:33;;;;;;;4.85;2.80;;;19.80;99.90;;;;;;5055883;28;20169;-86
2023/09/05 07:58:59;;;;;;;4.80;2.75;;;20.00;99.90;;;;;;5055297;28;20174;-86
2023/09/05 08:01:25;;;;;;;4.72;2.50;;;20.10;99.90;;;;;;5054368;28;20188;-86
2023/09/05 08:03:52;;;;;;;5.32;2.70;;;20.20;99.90;;;;;;5073367;28;20207;-86
2023/09/05 08:06:18;;;;;;;5.18;2.55;;;20.30;99.90;;;;;;5055962;28;20222;-87
2023/09/05 08:08:43;;;;;;;3.47;2.30;;;20.40;99.90;;;;;;5055889;28;20209;-85
2023/09/05 08:11:09;;;;;;;3.97;2.33;;;20.40;99.90;;;;;;5055656;28;20612;-86
2023/09/05 08:13:35;;;;;;;6.07;2.50;;;20.50;99.90;;;;;;5056051;28;20180;-85
2023/09/05 08:16:02;;;;;;;5.35;2.47;;;20.60;99.90;;;;;;5055785;28;20200;-86
2023/09/05 08:18:28;;;;;;;3.88;2.38;;;20.60;99.90;;;;;;5057983;28;20169;-86
2023/09/05 08:20:57;;;;;;;3.35;2.22;;;20.70;99.90;;;;;;5059216;28;20485;-88
2023/09/05 08:23:23;;;;;;;4.45;2.25;;;20.80;99.90;;;;;;5077277;28;20177;-88
2023/09/05 08:25:53;;;;;;;3.85;2.47;;;20.90;99.90;;;;;;5059287;28;20500;-87
2023/09/05 08:28:19;;;;;;;4.43;2.20;;;21.00;99.90;;;;;;5059027;28;20211;-87
2023/09/05 08:30:45;;;;;;;5.88;2.13;;;21.10;99.90;;;;;;5058993;28;20263;-87
2023/09/05 08:33:10;;;;;;;4.00;1.92;;;21.10;99.90;;;;;;5058470;28;20554;-87
2023/09/05 08:35:37;;;;;;;4.25;1.77;;;21.20;99.90;;;;;;5058937;28;20268;-86
2023/09/05 08:38:05;;;;;;;3.25;1.85;;;21.30;99.90;;;;;;5076876;28;20548;-87
2023/09/05 08:40:34;;;;;;;3.83;1.90;;;21.30;99.90;;;;;;5058760;28;20500;-85
2023/09/05 08:43:01;;;;;;;4.00;2.10;;;21.40;99.90;;;;;;5058765;28;20208;-87
2023/09/05 08:45:36;;;;;;;4.05;2.00;;;21.50;99.90;;;;;;5076772;28;20199;-87
2023/09/05 08:48:03;;;;;;;4.35;1.95;;;21.60;99.90;;;;;;5058656;28;20208;-87
2023/09/05 08:50:32;;;;;;;3.28;2.10;;;21.70;99.90;;;;;;5058343;28;20253;-88
2023/09/05 08:53:04;;;;;;;2.67;2.05;;;21.80;99.90;;;;;;5058622;28;20623;-90
2023/09/05 08:55:30;;;;;;;4.32;1.80;;;21.90;99.90;;;;;;5058754;28;20180;-87
2023/09/05 08:57:59;;;;;;;3.92;2.05;;;22.10;99.90;;;;;;5058382;28;20223;-87
2023/09/05 09:00:25;;;;;;;2.80;1.90;;;22.20;99.90;;;;;;5058512;28;20196;-87
2023/09/05 09:02:50;;;;;;;4.38;1.90;;;22.30;99.90;;;;;;5057995;28;20193;-87
2023/09/05 09:05:18;;;;;;;4.40;2.15;;;22.40;99.90;;;;;;5058583;28;20264;-88
2023/09/05 09:07:44;;;;;;;3.42;1.80;;;22.40;99.90;;;;;;5057932;28;20291;-88
2023/09/05 09:10:18;;;;;;;3.08;1.90;;;22.60;99.90;;;;;;5058534;28;20268;-88
2023/09/05 09:12:44;;;;;;;3.30;1.92;;;22.70;99.90;;;;;;5058255;28;20192;-87
2023/09/05 09:15:14;;;;;;;5.57;2.00;;;22.70;99.90;;;;;;5058603;28;20177;-88
2023/09/05 09:17:47;;;;;;;3.42;1.80;;;22.90;99.90;;;;;;5058176;28;20188;-88
2023/09/05 09:20:13;;;;;;;4.45;1.90;;;22.90;99.90;;;;;;5075827;28;20484;-87
2023/09/05 09:22:40;;;;;;;4.25;2.17;;;23.00;99.90;;;;;;5058085;28;20177;-88
2023/09/05 09:25:23;;;;;;;6.60;1.83;;;23.00;99.90;;;;;;5058129;28;20177;-88
2023/09/05 09:27:58;;;;;;;3.78;1.80;;;23.20;99.90;;;;;;5058309;28;20177;-88
2023/09/05 09:30:27;;;;;;;4.22;1.80;;;23.20;99.90;;;;;;5057780;28;20169;-88
2023/09/05 09:32:54;;;;;;;6.35;1.75;;;23.30;99.90;;;;;;5057837;28;20204;-87
2023/09/05 09:35:20;;;;;;;3.67;1.88;;;23.30;99.90;;;;;;5057980;28;20518;-88
2023/09/05 09:37:49;;;;;;;2.83;1.73;;;23.40;99.90;;;;;;5057772;28;20181;-89
2023/09/05 09:40:18;;;;;;;5.00;2.20;;;23.50;99.90;;;;;;5055995;28;20186;-89
2023/09/05 09:42:48;;;;;;;5.53;1.80;;;23.60;99.90;;;;;;5058046;28;20177;-87
2023/09/05 09:45:16;;;;;;;4.90;1.95;;;23.70;99.90;;;;;;5075896;28;20231;-90
2023/09/05 09:47:53;;;;;;;5.78;1.50;;;23.80;99.90;;;;;;5057499;28;20203;-90
2023/09/05 09:50:19;;;;;;;3.20;1.77;;;23.80;99.90;;;;;;5057453;28;20225;-92
2023/09/05 09:52:48;;;;;;;5.90;1.90;;;23.90;99.90;;;;;;5091627;28;20619;-89
2023/09/05 09:55:15;;;;;;;3.95;2.08;;;23.90;99.90;;;;;;5058071;28;20211;-87
2023/09/05 09:58:00;;;;;;;8.85;1.83;;;23.90;99.90;;;;;;5057824;28;20664;-87
2023/09/05 10:00:28;;;;;;;3.97;1.77;;;24.00;99.90;;;;;;5074984;28;20175;-88
2023/09/05 10:02:55;;;;;;;3.70;2.05;;;24.10;99.90;;;;;;5056678;28;20196;-86
2023/09/05 10:05:24;;;;;;;4.72;1.70;;;24.20;99.90;;;;;;5057392;28;20204;-88
2023/09/05 10:07:54;;;;;;;2.13;1.60;;;24.30;99.90;;;;;;5057502;28;20208;-89
2023/09/05 10:10:20;;;;;;;3.28;1.80;;;24.40;99.90;;;;;;5057330;28;20508;-90
2023/09/05 10:12:47;;;;;;;3.78;1.80;;;24.40;99.90;;;;;;5057690;28;20181;-89
2023/09/05 10:15:14;;;;;;;2.78;1.70;;;24.40;99.90;;;;;;5057315;28;20604;-91
2023/09/05 10:17:45;;;;;;;3.67;1.80;;;24.50;99.90;;;;;;5074718;28;20219;-89
2023/09/05 10:20:14;;;;;;;3.80;1.50;;;24.60;99.90;;;;;;5057094;28;20252;-88
2023/09/05 10:22:44;;;;;;;3.70;1.98;;;24.70;99.90;;;;;;5057063;28;20188;-91
2023/09/05 10:25:12;;;;;;;5.40;1.85;;;24.90;99.90;;;;;;5057301;28;20208;-90
2023/09/05 10:27:45;;;;;;;2.05;1.40;;;24.90;99.90;;;;;;5057012;28;20195;-90
2023/09/05 10:30:11;;;;;;;2.50;1.52;;;24.90;99.90;;;;;;5074930;28;20192;-90
2023/09/05 10:32:42;;;;;;;3.80;1.48;;;25.00;99.90;;;;;;5057028;28;20522;-91
2023/09/05 10:35:07;;;;;;;1.77;1.25;;;25.10;99.90;;;;;;5057179;28;20184;-90
2023/09/05 10:37:42;;;;;;;5.57;1.70;;;25.20;99.90;;;;;;5075015;28;20169;-90
2023/09/05 10:40:09;;;;;;;3.17;1.70;;;25.30;99.90;;;;;;5056737;28;20256;-90
2023/09/05 10:42:48;;;;;;;8.02;1.48;;;25.40;99.90;;;;;;5056275;28;20264;-90
2023/09/05 10:45:29;;;;;;;4.43;1.40;;;25.50;99.90;;;;;;5057130;28;20671;-89
2023/09/05 10:48:17;;;;;;;3.70;1.40;;;25.50;99.90;;;;;;5056658;28;20483;-90
2023/09/05 10:51:07;;;;;;;2.08;1.42;;;25.60;99.90;;;;;;5056839;28;20233;-90
2023/09/05 10:53:35;;;;;;;2.95;1.50;;;25.70;99.90;;;;;;5056813;28;20322;-90
2023/09/05 10:56:01;;;;;;;2.90;1.48;;;25.80;99.90;;;;;;5056830;28;20177;-90
2023/09/05 10:58:53;;;;;;;2.05;1.30;;;25.80;99.90;;;;;;5056790;28;20615;-87
2023/09/05 11:01:34;;;;;;;5.10;1.65;;;25.90;99.90;;;;;;5056359;28;20189;-91
2023/09/05 11:04:07;;;;;;;3.40;1.20;;;26.00;99.90;;;;;;5057019;28;20244;-92
2023/09/05 11:06:33;;;;;;;4.05;1.52;;;26.10;99.90;;;;;;5056854;28;20165;-88
2023/09/05 11:09:07;;;;;;;1.55;1.20;;;26.30;99.90;;;;;;5056968;28;20216;-92
2023/09/05 11:11:37;;;;;;;1.45;1.10;;;26.40;99.90;;;;;;5074904;28;20236;-90
2023/09/05 11:14:07;;;;;;;3.38;1.20;;;26.40;99.90;;;;;;5074692;28;20231;-95
2023/09/05 11:16:46;;;;;;;1.85;1.10;;;26.40;99.90;;;;;;5056721;28;20177;-95
2023/09/05 11:19:45;;;;;;;3.38;0.95;;;26.50;99.90;;;;;;5056855;28;20173;-93
2023/09/05 11:22:15;;;;;;;1.65;0.98;;;26.60;99.90;;;;;;5057065;28;20173;-94
2023/09/05 11:24:47;;;;;;;4.03;1.00;;;26.70;99.90;;;;;;5056842;28;20177;-93
2023/09/05 11:27:25;;;;;;;2.30;1.10;;;26.70;99.90;;;;;;5057231;28;20169;-92
2023/09/05 11:29:57;;;;;;;3.30;1.10;;;26.80;99.90;;;;;;5056857;28;20258;-94
2023/09/05 11:32:32;;;;;;;2.97;1.10;;;26.90;99.90;;;;;;5056275;28;20284;-93
2023/09/05 11:34:58;;;;;;;1.35;0.98;;;27.00;99.90;;;;;;5057000;28;20177;-90
2023/09/05 11:37:25;;;;;;;3.65;1.20;;;27.10;99.90;;;;;;5057009;28;20178;-90
2023/09/05 11:39:51;;;;;;;3.67;1.00;;;27.10;99.90;;;;;;5056554;28;20246;-91
2023/09/05 11:42:18;;;;;;;3.30;1.10;;;27.20;99.90;;;;;;5057323;28;20181;-90
2023/09/05 11:44:44;;;;;;;4.35;0.93;;;27.30;99.90;;;;;;5055472;28;20188;-89
2023/09/05 11:47:11;;;;;;;3.17;1.13;;;27.40;99.90;;;;;;5056913;28;20177;-95
2023/09/05 11:49:37;;;;;;;4.40;1.10;;;27.40;99.90;;;;;;5073272;28;20244;-95
2023/09/05 11:52:04;;;;;;;4.28;1.50;;;27.50;99.90;;;;;;5056733;28;20335;-93
2023/09/05 11:54:31;;;;;;;2.33;1.20;;;27.60;99.90;;;;;;5061366;28;20181;-96
2023/09/05 11:56:58;;;;;;;1.45;0.90;;;27.60;99.90;;;;;;5079436;28;20173;-94
2023/09/05 11:59:26;;;;;;;2.67;1.13;;;27.70;99.90;;;;;;5060626;28;20279;-96
2023/09/05 12:01:52;;;;;;;2.33;0.98;;;27.80;99.90;;;;;;5060125;28;20169;-92
2023/09/05 12:04:18;;;;;;;1.60;0.70;;;27.80;99.40;;;;;;5060978;28;20199;-93
2023/09/05 12:06:49;;;;;;;1.58;0.70;;;27.90;99.50;;;;;;5060908;28;20176;-94
2023/09/05 12:09:15;;;;;;;1.95;0.93;;;27.80;98.90;;;;;;5060996;28;20215;-96
2023/09/05 12:11:41;;;;;;;2.47;1.00;;;27.90;99.50;;;;;;5078053;28;20168;-91
2023/09/05 12:14:07;;;;;;;2.00;1.00;;;27.90;99.20;;;;;;5060254;28;20180;-96
2023/09/05 12:16:32;;;;;;;2.13;1.02;;;28.00;99.90;;;;;;5077873;28;20173;-93
2023/09/05 12:19:01;;;;;;;2.35;1.20;;;28.10;99.90;;;;;;5061816;28;20207;-95
2023/09/05 12:21:43;;;;;;;3.78;1.20;;;28.20;99.10;;;;;;5077810;28;20171;-95
2023/09/05 12:24:20;;;;;;;1.58;1.00;;;28.20;98.60;;;;;;5059361;28;20535;-92
2023/09/05 12:26:49;;;;;;;2.70;1.25;;;28.20;99.90;;;;;;5077043;28;20172;-89
2023/09/05 12:29:21;;;;;;;1.92;1.10;;;28.30;99.90;;;;;;5059361;28;20239;-91
2023/09/05 12:31:48;;;;;;;4.90;1.20;;;28.40;99.90;;;;;;5059315;28;20594;-88
2023/09/05 12:34:14;;;;;;;1.48;1.00;;;28.50;99.90;;;;;;5059330;28;20180;-90
2023/09/05 12:36:40;;;;;;;1.70;1.20;;;28.60;99.60;;;;;;5059393;28;20177;-91
2023/09/05 12:39:11;;;;;;;2.03;1.10;;;28.70;99.90;;;;;;5059781;28;20404;-90
2023/09/05 12:41:37;;;;;;;3.83;0.93;;;28.80;99.90;;;;;;5059177;28;20492;-89
2023/09/05 12:44:03;;;;;;;1.73;0.90;;;28.90;99.30;;;;;;5058665;28;20180;-91
2023/09/05 12:46:29;;;;;;;2.88;1.10;;;29.00;98.10;;;;;;5076439;28;20184;-89
2023/09/05 12:48:55;;;;;;;3.17;0.90;;;29.00;98.50;;;;;;5058251;28;20212;-86